sensor_id;sensor_type;location;lat;lon;timestamp;P1;durP1;ratioP1;P2;durP2;ratioP2
30096;SDS011;16915;51.466;3.610;2022-09-30T09:24:20;7.93;;;4.57;;
30096;SDS011;16915;51.466;3.610;2022-09-30T09:31:53;4.03;;;3.67;;
30096;SDS011;16915;51.466;3.610;2022-09-30T09:34:26;5.22;;;3.75;;
30096;SDS011;16915;51.466;3.610;2022-09-30T09:43:31;3.92;;;3.63;;
30096;SDS011;16915;51.466;3.610;2022-09-30T09:46:19;5.78;;;3.67;;
30096;SDS011;16915;51.466;3.610;2022-09-30T09:54:50;3.90;;;2.72;;
30096;SDS011;16915;51.466;3.610;2022-09-30T09:57:17;4.72;;;3.10;;
30096;SDS011;16915;51.466;3.610;2022-09-30T10:03:02;3.55;;;3.25;;
30096;SDS011;16915;51.466;3.610;2022-09-30T10:05:31;3.35;;;3.15;;
30096;SDS011;16915;51.466;3.610;2022-09-30T10:08:08;5.82;;;3.88;;
30096;SDS011;16915;51.466;3.610;2022-09-30T10:10:42;4.72;;;3.60;;
30096;SDS011;16915;51.466;3.610;2022-09-30T10:13:19;3.22;;;2.92;;
30096;SDS011;16915;51.466;3.610;2022-09-30T10:16:21;2.72;;;2.30;;
30096;SDS011;16915;51.466;3.610;2022-09-30T10:18:55;3.83;;;2.80;;
30096;SDS011;16915;51.466;3.610;2022-09-30T10:21:22;3.63;;;2.63;;
30096;SDS011;16915;51.466;3.610;2022-09-30T10:23:49;4.35;;;2.80;;
30096;SDS011;16915;51.466;3.610;2022-09-30T10:26:19;2.28;;;2.15;;
30096;SDS011;16915;51.466;3.610;2022-09-30T10:43:01;1.95;;;1.73;;
30096;SDS011;16915;51.466;3.610;2022-09-30T10:45:34;2.53;;;1.58;;
30096;SDS011;16915;51.466;3.610;2022-09-30T10:48:05;2.03;;;1.65;;
30096;SDS011;16915;51.466;3.610;2022-09-30T10:50:38;3.30;;;1.70;;
30096;SDS011;16915;51.466;3.610;2022-09-30T10:53:18;1.92;;;1.45;;
30096;SDS011;16915;51.466;3.610;2022-09-30T10:55:50;1.77;;;1.50;;
30096;SDS011;16915;51.466;3.610;2022-09-30T11:01:59;1.52;;;1.42;;
30096;SDS011;16915;51.466;3.610;2022-09-30T11:04:48;1.65;;;1.55;;
30096;SDS011;16915;51.466;3.610;2022-09-30T11:09:58;1.70;;;1.60;;
30096;SDS011;16915;51.466;3.610;2022-09-30T11:12:42;1.73;;;1.58;;
30096;SDS011;16915;51.466;3.610;2022-09-30T11:15:29;1.98;;;1.75;;
30096;SDS011;16915;51.466;3.610;2022-09-30T11:18:25;2.10;;;1.90;;
30096;SDS011;16915;51.466;3.610;2022-09-30T11:21:02;2.65;;;1.80;;
30096;SDS011;16915;51.466;3.610;2022-09-30T11:23:39;2.67;;;1.77;;
30096;SDS011;16915;51.466;3.610;2022-09-30T11:29:36;1.75;;;1.65;;
30096;SDS011;16915;51.466;3.610;2022-09-30T11:35:12;2.25;;;1.60;;
30096;SDS011;16915;51.466;3.610;2022-09-30T11:37:55;2.13;;;1.55;;
30096;SDS011;16915;51.466;3.610;2022-09-30T11:40:47;3.47;;;1.48;;
30096;SDS011;16915;51.466;3.610;2022-09-30T11:49:53;2.60;;;1.30;;
30096;SDS011;16915;51.466;3.610;2022-09-30T11:58:07;3.67;;;2.33;;
30096;SDS011;16915;51.466;3.610;2022-09-30T12:00:49;1.85;;;1.75;;
30096;SDS011;16915;51.466;3.610;2022-09-30T12:07:09;2.40;;;1.90;;
30096;SDS011;16915;51.466;3.610;2022-09-30T12:09:55;3.33;;;2.17;;
30096;SDS011;16915;51.466;3.610;2022-09-30T12:15:37;2.67;;;2.20;;
30096;SDS011;16915;51.466;3.610;2022-09-30T12:18:14;2.40;;;2.20;;
30096;SDS011;16915;51.466;3.610;2022-09-30T12:20:45;3.53;;;2.00;;
30096;SDS011;16915;51.466;3.610;2022-09-30T12:26:27;4.97;;;2.40;;
30096;SDS011;16915;51.466;3.610;2022-09-30T12:35:32;6.78;;;2.15;;
30096;SDS011;16915;51.466;3.610;2022-09-30T12:49:24;2.85;;;1.73;;
30096;SDS011;16915;51.466;3.610;2022-09-30T12:51:54;4.68;;;2.13;;
30096;SDS011;16915;51.466;3.610;2022-09-30T12:54:35;5.10;;;2.83;;
30096;SDS011;16915;51.466;3.610;2022-09-30T12:57:05;2.80;;;2.60;;
30096;SDS011;16915;51.466;3.610;2022-09-30T12:59:35;2.50;;;2.30;;
30096;SDS011;16915;51.466;3.610;2022-09-30T13:02:04;2.85;;;2.45;;
30096;SDS011;16915;51.466;3.610;2022-09-30T13:04:36;2.95;;;2.75;;
30096;SDS011;16915;51.466;3.610;2022-09-30T13:09:57;3.35;;;2.90;;
30096;SDS011;16915;51.466;3.610;2022-09-30T13:12:46;3.38;;;3.08;;
30096;SDS011;16915;51.466;3.610;2022-09-30T13:15:45;3.03;;;2.83;;
30096;SDS011;16915;51.466;3.610;2022-09-30T13:20:50;5.32;;;3.60;;
30096;SDS011;16915;51.466;3.610;2022-09-30T13:23:44;6.80;;;3.08;;
30096;SDS011;16915;51.466;3.610;2022-09-30T13:31:29;4.93;;;2.13;;
30096;SDS011;16915;51.466;3.610;2022-09-30T13:34:11;4.93;;;2.00;;
30096;SDS011;16915;51.466;3.610;2022-09-30T13:47:22;3.95;;;1.70;;
30096;SDS011;16915;51.466;3.610;2022-09-30T13:50:14;3.42;;;1.42;;
30096;SDS011;16915;51.466;3.610;2022-09-30T13:52:53;1.40;;;1.30;;
30096;SDS011;16915;51.466;3.610;2022-09-30T13:55:31;2.15;;;1.40;;
30096;SDS011;16915;51.466;3.610;2022-09-30T14:13:44;1.95;;;1.20;;
30096;SDS011;16915;51.466;3.610;2022-09-30T14:22:07;1.20;;;0.68;;
30096;SDS011;16915;51.466;3.610;2022-09-30T14:30:16;0.85;;;0.85;;
30096;SDS011;16915;51.466;3.610;2022-09-30T14:33:33;2.05;;;0.70;;
30096;SDS011;16915;51.466;3.610;2022-09-30T14:36:02;0.60;;;0.60;;
30096;SDS011;16915;51.466;3.610;2022-09-30T14:38:38;1.17;;;0.90;;
30096;SDS011;16915;51.466;3.610;2022-09-30T14:41:18;1.67;;;1.20;;
30096;SDS011;16915;51.466;3.610;2022-09-30T14:43:47;1.63;;;0.82;;
30096;SDS011;16915;51.466;3.610;2022-09-30T14:46:32;2.47;;;1.30;;
30096;SDS011;16915;51.466;3.610;2022-09-30T14:49:21;1.67;;;0.95;;
30096;SDS011;16915;51.466;3.610;2022-09-30T14:51:56;1.23;;;1.10;;
30096;SDS011;16915;51.466;3.610;2022-09-30T14:54:31;1.45;;;1.35;;
30096;SDS011;16915;51.466;3.610;2022-09-30T14:57:12;1.10;;;1.00;;
30096;SDS011;16915;51.466;3.610;2022-09-30T15:00:23;2.35;;;1.40;;
30096;SDS011;16915;51.466;3.610;2022-09-30T15:03:10;2.67;;;1.17;;
30096;SDS011;16915;51.466;3.610;2022-09-30T15:06:03;4.93;;;1.95;;
30096;SDS011;16915;51.466;3.610;2022-09-30T15:08:58;1.05;;;0.95;;
30096;SDS011;16915;51.466;3.610;2022-09-30T15:12:05;3.50;;;1.30;;
30096;SDS011;16915;51.466;3.610;2022-09-30T15:14:57;2.42;;;1.55;;
30096;SDS011;16915;51.466;3.610;2022-09-30T15:17:29;2.67;;;1.30;;
30096;SDS011;16915;51.466;3.610;2022-09-30T15:23:32;3.22;;;1.33;;
30096;SDS011;16915;51.466;3.610;2022-09-30T15:26:24;9.25;;;1.50;;
30096;SDS011;16915;51.466;3.610;2022-09-30T15:28:57;3.47;;;1.25;;
30096;SDS011;16915;51.466;3.610;2022-09-30T15:31:46;3.20;;;1.88;;
30096;SDS011;16915;51.466;3.610;2022-09-30T15:34:43;4.28;;;2.10;;
30096;SDS011;16915;51.466;3.610;2022-09-30T15:37:47;4.75;;;1.83;;
30096;SDS011;16915;51.466;3.610;2022-09-30T15:40:44;4.80;;;2.47;;
30096;SDS011;16915;51.466;3.610;2022-09-30T15:46:29;2.58;;;1.60;;
30096;SDS011;16915;51.466;3.610;2022-09-30T15:50:21;2.20;;;1.40;;
30096;SDS011;16915;51.466;3.610;2022-09-30T15:53:23;1.77;;;1.13;;
30096;SDS011;16915;51.466;3.610;2022-09-30T15:59:14;3.22;;;1.10;;
30096;SDS011;16915;51.466;3.610;2022-09-30T16:01:40;1.42;;;1.10;;
30096;SDS011;16915;51.466;3.610;2022-09-30T16:04:33;1.13;;;0.90;;
30096;SDS011;16915;51.466;3.610;2022-09-30T16:07:14;1.63;;;1.10;;
30096;SDS011;16915;51.466;3.610;2022-09-30T16:09:45;2.70;;;1.13;;
30096;SDS011;16915;51.466;3.610;2022-09-30T16:12:55;2.70;;;1.17;;
30096;SDS011;16915;51.466;3.610;2022-09-30T16:15:37;2.15;;;1.10;;
30096;SDS011;16915;51.466;3.610;2022-09-30T16:18:04;2.63;;;1.02;;
30096;SDS011;16915;51.466;3.610;2022-09-30T16:21:36;1.70;;;1.25;;
30096;SDS011;16915;51.466;3.610;2022-09-30T16:24:44;2.63;;;1.10;;
30096;SDS011;16915;51.466;3.610;2022-09-30T16:27:40;4.32;;;1.02;;
30096;SDS011;16915;51.466;3.610;2022-09-30T16:30:14;1.27;;;1.00;;
30096;SDS011;16915;51.466;3.610;2022-09-30T16:34:05;1.00;;;0.90;;
30096;SDS011;16915;51.466;3.610;2022-09-30T16:37:27;1.02;;;0.82;;
30096;SDS011;16915;51.466;3.610;2022-09-30T16:40:54;1.88;;;1.02;;
30096;SDS011;16915;51.466;3.610;2022-09-30T16:44:33;3.05;;;0.85;;
30096;SDS011;16915;51.466;3.610;2022-09-30T16:48:16;1.15;;;1.05;;
30096;SDS011;16915;51.466;3.610;2022-09-30T16:51:10;2.20;;;0.98;;
30096;SDS011;16915;51.466;3.610;2022-09-30T16:53:39;1.65;;;1.00;;
30096;SDS011;16915;51.466;3.610;2022-09-30T16:56:20;1.40;;;1.30;;
30096;SDS011;16915;51.466;3.610;2022-09-30T16:59:12;4.60;;;1.00;;
30096;SDS011;16915;51.466;3.610;2022-09-30T17:01:40;2.30;;;1.52;;
30096;SDS011;16915;51.466;3.610;2022-09-30T17:04:19;1.17;;;1.08;;
30096;SDS011;16915;51.466;3.610;2022-09-30T17:07:04;1.48;;;1.13;;
30096;SDS011;16915;51.466;3.610;2022-09-30T17:10:33;1.17;;;1.00;;
30096;SDS011;16915;51.466;3.610;2022-09-30T17:13:48;2.13;;;1.30;;
30096;SDS011;16915;51.466;3.610;2022-09-30T17:16:35;2.20;;;1.17;;
30096;SDS011;16915;51.466;3.610;2022-09-30T17:19:39;2.55;;;1.30;;
30096;SDS011;16915;51.466;3.610;2022-09-30T17:22:07;1.42;;;1.27;;
30096;SDS011;16915;51.466;3.610;2022-09-30T17:24:50;1.40;;;1.30;;
30096;SDS011;16915;51.466;3.610;2022-09-30T17:27:45;1.60;;;1.50;;
30096;SDS011;16915;51.466;3.610;2022-09-30T17:30:14;4.30;;;1.65;;
30096;SDS011;16915;51.466;3.610;2022-09-30T17:32:45;3.70;;;1.67;;
30096;SDS011;16915;51.466;3.610;2022-09-30T17:35:38;3.20;;;1.90;;
30096;SDS011;16915;51.466;3.610;2022-09-30T17:38:11;2.45;;;1.70;;
30096;SDS011;16915;51.466;3.610;2022-09-30T17:40:43;2.58;;;1.70;;
30096;SDS011;16915;51.466;3.610;2022-09-30T17:43:33;3.63;;;1.95;;
30096;SDS011;16915;51.466;3.610;2022-09-30T17:46:19;1.65;;;1.55;;
30096;SDS011;16915;51.466;3.610;2022-09-30T17:48:54;2.70;;;1.90;;
30096;SDS011;16915;51.466;3.610;2022-09-30T17:51:46;3.13;;;1.83;;
30096;SDS011;16915;51.466;3.610;2022-09-30T17:54:42;2.20;;;2.00;;
30096;SDS011;16915;51.466;3.610;2022-09-30T18:01:03;2.90;;;1.90;;
30096;SDS011;16915;51.466;3.610;2022-09-30T18:04:12;2.53;;;2.30;;
30096;SDS011;16915;51.466;3.610;2022-09-30T18:07:04;4.53;;;2.30;;
30096;SDS011;16915;51.466;3.610;2022-09-30T18:09:50;2.67;;;2.15;;
30096;SDS011;16915;51.466;3.610;2022-09-30T18:12:45;6.47;;;5.00;;
30096;SDS011;16915;51.466;3.610;2022-09-30T18:16:20;3.33;;;2.15;;
30096;SDS011;16915;51.466;3.610;2022-09-30T18:18:49;2.30;;;2.10;;
30096;SDS011;16915;51.466;3.610;2022-09-30T18:22:15;3.97;;;2.47;;
30096;SDS011;16915;51.466;3.610;2022-09-30T18:28:39;4.40;;;2.47;;
30096;SDS011;16915;51.466;3.610;2022-09-30T18:31:24;2.65;;;2.35;;
30096;SDS011;16915;51.466;3.610;2022-09-30T18:35:10;2.40;;;2.20;;
30096;SDS011;16915;51.466;3.610;2022-09-30T18:45:54;1.88;;;1.40;;
30096;SDS011;16915;51.466;3.610;2022-09-30T18:48:49;2.03;;;1.42;;
30096;SDS011;16915;51.466;3.610;2022-09-30T19:12:25;2.55;;;1.10;;
30096;SDS011;16915;51.466;3.610;2022-09-30T19:15:17;1.13;;;1.02;;
30096;SDS011;16915;51.466;3.610;2022-09-30T19:17:48;1.25;;;1.13;;
30096;SDS011;16915;51.466;3.610;2022-09-30T23:44:41;7.30;;;3.90;;
30096;SDS011;16915;51.466;3.610;2022-09-30T23:48:17;5.57;;;3.45;;
30096;SDS011;16915;51.466;3.610;2022-09-30T23:54:31;8.68;;;3.78;;
30096;SDS011;16915;51.466;3.610;2022-09-30T23:57:54;6.68;;;4.20;;
